createdAt,value
2019-04-10T00:00:37.271Z,11.70
2019-04-10T00:03:06.317Z,11.70
2019-04-10T00:05:36.102Z,11.70
2019-04-10T00:08:06.146Z,11.70
2019-04-10T00:10:36.107Z,11.70
2019-04-10T00:13:06.723Z,11.70
2019-04-10T00:15:35.331Z,11.70
2019-04-10T00:18:03.968Z,11.70
2019-04-10T00:20:32.589Z,11.70
2019-04-10T00:23:02.429Z,11.80
2019-04-10T00:25:31.312Z,11.80
2019-04-10T00:28:00.849Z,11.80
2019-04-10T00:30:29.944Z,11.70
2019-04-10T00:32:58.592Z,11.70
2019-04-10T00:35:27.639Z,11.70
2019-04-10T00:37:57.466Z,11.60
2019-04-10T00:40:26.266Z,11.70
2019-04-10T00:42:57.063Z,11.60
2019-04-10T00:45:25.234Z,11.70
2019-04-10T00:47:53.808Z,11.70
2019-04-10T00:50:22.370Z,11.60
2019-04-10T00:52:51.048Z,11.50
2019-04-10T00:55:19.717Z,11.60
2019-04-10T00:57:48.415Z,11.50
2019-04-10T01:00:17.389Z,11.50
2019-04-10T01:02:47.047Z,11.50
2019-04-10T01:05:17.307Z,11.60
2019-04-10T01:07:46.995Z,11.60
2019-04-10T01:10:16.291Z,11.60
2019-04-10T01:12:45.946Z,11.60
2019-04-10T01:15:14.847Z,11.70
2019-04-10T01:17:43.479Z,11.70
2019-04-10T01:20:12.124Z,11.70
2019-04-10T01:22:41.491Z,11.70
2019-04-10T01:25:10.374Z,11.70
2019-04-10T01:27:41.033Z,11.70
2019-04-10T01:30:10.463Z,11.60
2019-04-10T01:32:39.756Z,11.60
2019-04-10T01:35:09.825Z,11.60
2019-04-10T01:37:48.806Z,11.60
2019-04-10T01:40:10.724Z,11.60
2019-04-10T01:42:39.377Z,11.60
2019-04-10T01:45:09.023Z,11.60
2019-04-10T01:47:37.781Z,11.50
2019-04-10T01:50:06.664Z,11.60
2019-04-10T01:52:35.368Z,11.50
2019-04-10T01:55:18.168Z,11.50
2019-04-10T01:57:34.917Z,11.50
2019-04-10T02:00:06.756Z,11.50
2019-04-10T02:02:37.132Z,11.50
2019-04-10T02:05:06.213Z,11.50
2019-04-10T02:07:34.716Z,11.50
2019-04-10T02:10:03.842Z,11.50
2019-04-10T02:12:32.605Z,11.60
2019-04-10T02:15:01.423Z,11.60
2019-04-10T02:17:30.781Z,11.70
2019-04-10T02:20:00.718Z,11.70
2019-04-10T02:22:29.452Z,11.70
2019-04-10T02:24:58.172Z,11.70
2019-04-10T02:27:26.768Z,11.60
2019-04-10T02:29:55.777Z,11.60
2019-04-10T02:32:26.275Z,11.60
2019-04-10T02:34:55.250Z,11.60
2019-04-10T02:37:25.081Z,11.60
2019-04-10T02:39:59.928Z,11.60
2019-04-10T02:42:24.802Z,11.60
2019-04-10T02:44:54.172Z,11.60
2019-04-10T02:47:23.119Z,11.50
2019-04-10T02:49:52.252Z,11.50
2019-04-10T02:52:22.537Z,11.50
2019-04-10T02:54:51.267Z,11.60
2019-04-10T02:57:21.367Z,11.60
2019-04-10T02:59:51.218Z,11.60
2019-04-10T03:02:20.300Z,11.60
2019-04-10T03:04:49.215Z,11.60
2019-04-10T03:07:19.770Z,11.60
2019-04-10T03:10:00.980Z,11.60
2019-04-10T03:12:19.730Z,11.60
2019-04-10T03:14:49.853Z,11.60
2019-04-10T03:17:19.711Z,11.70
2019-04-10T03:19:48.308Z,11.60
2019-04-10T03:22:16.805Z,11.50
2019-04-10T03:24:46.230Z,11.60
2019-04-10T03:27:16.277Z,11.60
2019-04-10T03:29:46.328Z,11.60
2019-04-10T03:32:36.521Z,11.50
2019-04-10T03:35:14.786Z,11.60
2019-04-10T03:37:44.553Z,11.60
2019-04-10T03:40:13.662Z,11.60
2019-04-10T03:42:43.305Z,11.60
2019-04-10T03:45:12.008Z,11.50
2019-04-10T03:47:41.753Z,11.60
2019-04-10T03:50:10.995Z,11.60
2019-04-10T03:52:39.551Z,11.60
2019-04-10T03:55:08.513Z,11.60
2019-04-10T03:57:37.065Z,11.60
2019-04-10T04:00:06.899Z,11.60
2019-04-10T04:02:35.954Z,11.50
2019-04-10T04:05:06.576Z,11.50
2019-04-10T04:07:35.265Z,11.50
2019-04-10T04:10:06.456Z,11.60
2019-04-10T04:12:35.167Z,11.50
2019-04-10T04:15:05.370Z,11.60
2019-04-10T04:17:34.077Z,11.50
2019-04-10T04:20:02.753Z,11.40
2019-04-10T04:22:31.316Z,11.40
2019-04-10T04:25:00.288Z,11.40
2019-04-10T04:27:29.277Z,11.40
2019-04-10T04:29:58.079Z,11.50
2019-04-10T04:32:26.689Z,11.50
2019-04-10T04:34:56.308Z,11.50
2019-04-10T04:37:25.783Z,11.50
2019-04-10T04:39:54.630Z,11.50
2019-04-10T04:42:24.421Z,11.50
2019-04-10T04:44:54.227Z,11.50
2019-04-10T04:47:22.829Z,11.60
2019-04-10T04:49:52.343Z,11.50
2019-04-10T04:52:21.093Z,11.50
2019-04-10T04:54:49.874Z,11.40
2019-04-10T04:57:18.688Z,11.40
2019-04-10T04:59:48.272Z,11.50
2019-04-10T05:02:17.743Z,11.40
2019-04-10T05:04:46.640Z,11.40
2019-04-10T05:07:15.130Z,11.40
2019-04-10T05:09:44.026Z,11.40
2019-04-10T05:12:13.380Z,11.30
2019-04-10T05:14:42.116Z,11.20
2019-04-10T05:17:10.674Z,11.20
2019-04-10T05:19:39.165Z,11.30
2019-04-10T05:22:08.056Z,11.30
2019-04-10T05:24:36.661Z,11.30
2019-04-10T05:27:05.748Z,11.30
2019-04-10T05:29:34.626Z,11.30
2019-04-10T05:32:03.189Z,11.20
2019-04-10T05:34:32.445Z,11.20
2019-04-10T05:37:01.004Z,11.10
2019-04-10T05:39:39.813Z,11.10
2019-04-10T05:42:01.948Z,11.20
2019-04-10T05:44:30.201Z,11.10
2019-04-10T05:46:59.060Z,11.10
2019-04-10T05:49:28.855Z,11.10
2019-04-10T05:51:57.691Z,11.00
2019-04-10T05:54:26.979Z,11.00
2019-04-10T05:56:55.799Z,11.00
2019-04-10T05:59:24.332Z,11.00
2019-04-10T06:01:52.979Z,11.00
2019-04-10T06:04:21.565Z,11.10
2019-04-10T06:06:50.218Z,11.10
2019-04-10T06:09:18.927Z,11.10
2019-04-10T06:11:47.468Z,11.10
2019-04-10T06:14:16.033Z,11.10
2019-04-10T06:16:44.778Z,11.10
2019-04-10T06:19:13.653Z,11.10
2019-04-10T06:21:42.505Z,11.00
2019-04-10T06:24:11.930Z,11.00
2019-04-10T06:26:40.759Z,11.10
2019-04-10T06:29:09.267Z,11.10
2019-04-10T06:31:39.062Z,11.00
2019-04-10T06:34:08.924Z,11.00
2019-04-10T06:36:37.717Z,10.90
2019-04-10T06:39:06.840Z,10.90
2019-04-10T06:41:35.386Z,10.90
2019-04-10T06:44:04.131Z,10.90
2019-04-10T06:46:32.779Z,10.80
2019-04-10T06:49:01.288Z,10.80
2019-04-10T06:51:29.980Z,10.80
2019-04-10T06:54:02.837Z,10.80
2019-04-10T06:56:29.198Z,10.80
2019-04-10T06:58:58.332Z,10.70
2019-04-10T07:01:39.033Z,10.80
2019-04-10T07:04:03.631Z,10.80
2019-04-10T07:06:44.626Z,10.80
2019-04-10T07:08:59.006Z,10.90
2019-04-10T07:11:30.521Z,10.90
2019-04-10T07:13:58.529Z,10.90
2019-04-10T07:16:31.507Z,10.90
2019-04-10T07:19:01.619Z,10.90
2019-04-10T07:21:30.681Z,10.90
2019-04-10T07:24:04.579Z,10.90
2019-04-10T07:26:38.134Z,10.90
2019-04-10T07:29:00.578Z,10.90
2019-04-10T07:31:30.340Z,10.80
2019-04-10T07:33:59.960Z,10.80
2019-04-10T07:36:29.435Z,10.90
2019-04-10T07:38:59.178Z,10.80
2019-04-10T07:41:29.265Z,10.90
2019-04-10T07:43:58.350Z,10.90
2019-04-10T07:46:28.248Z,10.80
2019-04-10T07:48:57.197Z,10.80
2019-04-10T07:51:26.026Z,10.80
2019-04-10T07:53:55.590Z,10.70
2019-04-10T07:56:24.613Z,10.70
2019-04-10T07:58:53.826Z,10.80
2019-04-10T08:01:22.608Z,10.80
2019-04-10T08:03:52.459Z,10.90
2019-04-10T08:06:21.401Z,10.90
2019-04-10T08:08:51.065Z,11.00
2019-04-10T08:11:19.992Z,11.00
2019-04-10T08:13:49.237Z,11.10
2019-04-10T08:16:18.924Z,11.20
2019-04-10T08:18:47.821Z,11.20
2019-04-10T08:21:17.658Z,11.10
2019-04-10T08:23:46.558Z,11.00
2019-04-10T08:26:16.221Z,11.00
2019-04-10T08:28:45.411Z,11.00
2019-04-10T08:31:14.939Z,11.00
2019-04-10T08:33:44.064Z,11.00
2019-04-10T08:36:13.023Z,11.00
2019-04-10T08:38:42.121Z,10.90
2019-04-10T08:41:11.031Z,10.90
2019-04-10T08:43:39.731Z,10.90
2019-04-10T08:46:08.732Z,10.90
2019-04-10T08:48:37.461Z,10.80
2019-04-10T08:51:06.586Z,10.80
2019-04-10T08:53:36.224Z,10.80
2019-04-10T08:56:06.502Z,10.80
2019-04-10T08:58:35.281Z,10.80
2019-04-10T09:01:05.023Z,10.80
2019-04-10T09:03:33.724Z,10.80
2019-04-10T09:06:02.908Z,10.70
2019-04-10T09:08:31.653Z,10.70
2019-04-10T09:11:00.953Z,10.70
2019-04-10T09:13:30.670Z,10.70
2019-04-10T09:16:00.327Z,10.80
2019-04-10T09:18:29.482Z,11.00
2019-04-10T09:20:59.320Z,11.10
2019-04-10T09:23:37.934Z,11.10
2019-04-10T09:25:59.565Z,11.20
2019-04-10T09:28:28.519Z,11.30
2019-04-10T09:30:57.430Z,11.30
2019-04-10T09:33:28.298Z,11.20
2019-04-10T09:35:57.151Z,11.30
2019-04-10T09:38:26.463Z,11.20
2019-04-10T09:40:55.299Z,11.30
2019-04-10T09:43:23.855Z,11.20
2019-04-10T09:45:53.565Z,11.10
2019-04-10T09:48:22.294Z,11.10
2019-04-10T09:50:50.911Z,11.00
2019-04-10T09:53:19.480Z,11.10
2019-04-10T09:55:49.013Z,11.10
2019-04-10T09:58:17.683Z,11.10
2019-04-10T10:00:46.662Z,11.20
2019-04-10T10:03:15.349Z,11.30
2019-04-10T10:05:44.634Z,11.30
2019-04-10T10:08:14.212Z,11.30
2019-04-10T10:10:43.175Z,11.30
2019-04-10T10:13:12.977Z,11.40
2019-04-10T10:15:41.755Z,11.60
2019-04-10T10:18:10.987Z,11.70
2019-04-10T10:20:39.746Z,11.80
2019-04-10T10:23:09.534Z,11.90
2019-04-10T10:25:39.368Z,11.90
2019-04-10T10:28:09.088Z,11.90
2019-04-10T10:30:37.835Z,12.00
2019-04-10T10:33:07.641Z,12.20
2019-04-10T10:35:36.369Z,12.40
2019-04-10T10:38:05.450Z,12.50
2019-04-10T10:40:34.161Z,12.60
2019-04-10T10:43:02.820Z,12.60
2019-04-10T10:45:31.464Z,12.80
2019-04-10T10:48:01.198Z,13.00
2019-04-10T10:50:31.033Z,13.20
2019-04-10T10:52:59.837Z,13.30
2019-04-10T10:55:29.612Z,13.30
2019-04-10T10:57:59.404Z,13.30
2019-04-10T11:00:29.418Z,13.30
2019-04-10T11:02:58.456Z,13.20
2019-04-10T11:05:27.348Z,12.90
2019-04-10T11:07:57.267Z,12.70
2019-04-10T11:10:27.502Z,12.80
2019-04-10T11:12:56.325Z,12.90
2019-04-10T11:15:26.127Z,13.00
2019-04-10T11:17:55.089Z,13.00
2019-04-10T11:20:24.168Z,13.20
2019-04-10T11:22:53.694Z,13.20
2019-04-10T11:25:22.365Z,13.20
2019-04-10T11:27:51.613Z,13.40
2019-04-10T11:30:20.687Z,13.40
2019-04-10T11:32:50.733Z,13.50
2019-04-10T11:35:21.644Z,13.60
2019-04-10T11:37:53.309Z,13.90
2019-04-10T11:40:20.989Z,14.20
2019-04-10T11:42:51.535Z,14.30
2019-04-10T11:45:20.204Z,14.60
2019-04-10T11:47:51.325Z,14.70
2019-04-10T11:50:19.164Z,14.80
2019-04-10T11:57:49.665Z,15.00
2019-04-10T12:00:23.752Z,15.10
2019-04-10T12:02:52.862Z,15.00
2019-04-10T12:05:23.882Z,14.90
2019-04-10T12:12:54.222Z,14.50
2019-04-10T12:15:23.906Z,14.50
2019-04-10T12:17:52.525Z,14.50
2019-04-10T12:20:21.301Z,14.30
2019-04-10T12:22:49.883Z,14.10
2019-04-10T12:25:18.696Z,14.10
2019-04-10T12:27:47.462Z,14.20
2019-04-10T12:30:17.493Z,14.00
2019-04-10T12:32:47.447Z,13.90
2019-04-10T12:35:17.109Z,13.80
2019-04-10T12:37:45.796Z,13.60
2019-04-10T12:40:14.863Z,13.50
2019-04-10T12:42:44.155Z,13.40
2019-04-10T12:45:13.552Z,13.40
2019-04-10T12:47:42.153Z,13.50
2019-04-10T12:50:12.141Z,13.50
2019-04-10T12:52:40.912Z,13.40
2019-04-10T12:55:10.211Z,13.30
2019-04-10T12:57:39.162Z,13.30
2019-04-10T13:00:12.360Z,13.30
2019-04-10T13:02:41.013Z,13.40
2019-04-10T13:05:09.826Z,13.40
2019-04-10T13:07:38.426Z,13.50
2019-04-10T13:10:08.596Z,13.60
2019-04-10T13:12:37.630Z,13.60
2019-04-10T13:15:08.213Z,13.60
2019-04-10T13:17:36.769Z,13.70
2019-04-10T13:20:09.280Z,13.80
2019-04-10T13:22:38.103Z,13.80
2019-04-10T13:25:08.141Z,13.80
2019-04-10T13:27:36.905Z,13.80
2019-04-10T13:30:12.597Z,14.00
2019-04-10T13:32:40.281Z,14.10
2019-04-10T13:35:10.194Z,14.20
2019-04-10T13:37:38.991Z,14.30
2019-04-10T13:40:07.964Z,14.40
2019-04-10T13:42:37.164Z,14.60
2019-04-10T13:45:08.130Z,14.50
2019-04-10T13:47:36.792Z,14.70
2019-04-10T13:50:08.721Z,14.70
2019-04-10T13:52:39.166Z,14.70
2019-04-10T13:55:08.903Z,14.80
2019-04-10T13:57:39.202Z,14.70
2019-04-10T14:00:11.285Z,14.80
2019-04-10T14:02:40.045Z,14.80
2019-04-10T14:05:11.616Z,14.90
2019-04-10T14:07:40.371Z,14.80
2019-04-10T14:10:10.500Z,14.80
2019-04-10T14:12:39.263Z,14.70
2019-04-10T14:15:08.057Z,14.80
2019-04-10T14:17:37.618Z,14.80
2019-04-10T14:20:07.005Z,14.80
2019-04-10T14:22:37.956Z,14.80
2019-04-10T14:25:09.593Z,14.90
2019-04-10T14:27:38.491Z,14.90
2019-04-10T14:30:11.322Z,15.00
2019-04-10T14:32:40.363Z,15.10
2019-04-10T14:35:09.887Z,15.10
2019-04-10T14:37:38.603Z,15.10
2019-04-10T14:40:09.424Z,15.10
2019-04-10T14:42:38.385Z,15.20
2019-04-10T14:45:09.005Z,15.30
2019-04-10T14:47:37.920Z,15.10
2019-04-10T14:50:07.528Z,15.00
2019-04-10T14:52:37.147Z,15.10
2019-04-10T14:55:06.310Z,15.00
2019-04-10T14:57:35.483Z,15.00
2019-04-10T15:00:08.606Z,15.00
2019-04-10T15:02:37.222Z,15.10
2019-04-10T15:05:08.075Z,15.10
2019-04-10T15:07:37.309Z,15.20
2019-04-10T15:10:06.897Z,15.20
2019-04-10T15:12:35.581Z,15.10
2019-04-10T15:15:05.443Z,15.10
2019-04-10T15:17:34.140Z,15.10
2019-04-10T15:20:02.832Z,15.10
2019-04-10T15:22:31.766Z,15.10
2019-04-10T15:25:01.417Z,15.10
2019-04-10T15:27:30.233Z,15.10
2019-04-10T15:29:58.890Z,14.90
2019-04-10T15:32:27.505Z,14.70
2019-04-10T15:34:56.128Z,14.70
2019-04-10T15:37:24.918Z,14.70
2019-04-10T15:39:53.950Z,14.60
2019-04-10T15:42:23.767Z,14.50
2019-04-10T15:44:52.482Z,14.50
2019-04-10T15:47:23.093Z,14.40
2019-04-10T15:49:51.607Z,14.40
2019-04-10T15:52:20.335Z,14.30
2019-04-10T15:54:49.941Z,14.20
2019-04-10T15:57:18.938Z,14.10
2019-04-10T15:59:48.314Z,14.00
2019-04-10T16:02:16.994Z,14.00
2019-04-10T16:04:45.647Z,14.00
2019-04-10T16:07:14.966Z,13.90
2019-04-10T16:09:49.882Z,13.90
2019-04-10T16:12:16.587Z,13.90
2019-04-10T16:14:46.479Z,13.80
2019-04-10T16:17:29.377Z,13.80
2019-04-10T16:19:59.877Z,13.70
2019-04-10T16:22:31.129Z,13.50
2019-04-10T16:25:01.581Z,13.60
2019-04-10T16:27:30.714Z,13.60
2019-04-10T16:30:02.060Z,13.60
2019-04-10T16:32:30.060Z,13.60
2019-04-10T16:34:58.984Z,13.50
2019-04-10T16:37:27.726Z,13.50
2019-04-10T16:40:00.320Z,13.50
2019-04-10T16:42:26.806Z,13.40
2019-04-10T16:44:55.475Z,13.40
2019-04-10T16:47:24.180Z,13.40
2019-04-10T16:49:53.113Z,13.30
2019-04-10T16:52:23.024Z,13.30
2019-04-10T16:54:51.833Z,13.30
2019-04-10T16:57:20.713Z,13.20
2019-04-10T16:59:49.419Z,13.30
2019-04-10T17:02:18.064Z,13.20
2019-04-10T17:04:46.696Z,13.10
2019-04-10T17:07:15.484Z,13.10
2019-04-10T17:09:45.483Z,13.00
2019-04-10T17:12:14.344Z,13.00
2019-04-10T17:14:43.899Z,13.00
2019-04-10T17:17:12.659Z,12.90
2019-04-10T17:19:50.474Z,12.90
2019-04-10T17:22:11.803Z,12.80
2019-04-10T17:24:41.989Z,12.70
2019-04-10T17:27:11.166Z,12.70
2019-04-10T17:29:40.984Z,12.70
2019-04-10T17:32:11.000Z,12.60
2019-04-10T17:34:40.973Z,12.50
2019-04-10T17:37:09.816Z,12.50
2019-04-10T17:39:39.634Z,12.40
2019-04-10T17:42:08.468Z,12.40
2019-04-10T17:44:38.115Z,12.30
2019-04-10T17:47:09.550Z,12.30
2019-04-10T17:49:39.221Z,12.30
2019-04-10T17:52:08.308Z,12.30
2019-04-10T17:54:37.057Z,12.30
2019-04-10T17:57:05.973Z,12.30
2019-04-10T17:59:34.918Z,12.20
2019-04-10T18:02:05.511Z,12.20
2019-04-10T18:04:34.324Z,12.20
2019-04-10T18:07:03.892Z,12.20
2019-04-10T18:09:33.430Z,12.10
2019-04-10T18:12:03.932Z,12.00
2019-04-10T18:14:36.346Z,12.00
2019-04-10T18:17:03.058Z,12.00
2019-04-10T18:19:32.370Z,12.00
2019-04-10T18:22:01.088Z,11.90
2019-04-10T18:24:30.428Z,11.90
2019-04-10T18:27:00.047Z,11.90
2019-04-10T18:29:30.949Z,11.90
2019-04-10T18:32:00.923Z,11.80
2019-04-10T18:34:30.620Z,11.80
2019-04-10T18:36:59.167Z,11.80
2019-04-10T18:39:27.797Z,11.80
2019-04-10T18:41:59.311Z,11.80
2019-04-10T18:44:26.920Z,11.70
2019-04-10T18:46:56.445Z,11.70
2019-04-10T18:49:25.081Z,11.70
2019-04-10T18:51:54.987Z,11.70
2019-04-10T18:54:24.931Z,11.70
2019-04-10T18:56:53.717Z,11.70
2019-04-10T18:59:24.723Z,11.70
2019-04-10T19:01:55.707Z,11.70
2019-04-10T19:04:30.759Z,11.70
2019-04-10T19:07:01.160Z,11.60
2019-04-10T19:09:32.485Z,11.60
2019-04-10T19:12:02.459Z,11.60
2019-04-10T19:14:34.956Z,11.60
2019-04-10T19:17:02.534Z,11.50
2019-04-10T19:19:33.101Z,11.60
2019-04-10T19:22:02.218Z,11.40
2019-04-10T19:24:32.366Z,11.40
2019-04-10T19:27:02.736Z,11.40
2019-04-10T19:29:31.805Z,11.40
2019-04-10T19:32:02.143Z,11.40
2019-04-10T19:34:31.719Z,11.40
2019-04-10T19:37:00.711Z,11.40
2019-04-10T19:39:30.013Z,11.50
2019-04-10T19:41:58.802Z,11.50
2019-04-10T19:44:28.835Z,11.50
2019-04-10T19:46:57.861Z,11.50
2019-04-10T19:49:26.602Z,11.40
2019-04-10T19:51:56.001Z,11.40
2019-04-10T19:54:26.076Z,11.40
2019-04-10T19:56:55.096Z,11.30
2019-04-10T19:59:24.923Z,11.20
2019-04-10T20:01:54.825Z,11.20
2019-04-10T20:04:24.158Z,11.20
2019-04-10T20:06:56.448Z,11.30
2019-04-10T20:09:25.271Z,11.40
2019-04-10T20:11:56.165Z,11.40
2019-04-10T20:14:24.639Z,11.40
2019-04-10T20:16:53.473Z,11.40
2019-04-10T20:19:24.528Z,11.50
2019-04-10T20:21:54.495Z,11.40
2019-04-10T20:24:25.027Z,11.40
2019-04-10T20:26:53.922Z,11.40
2019-04-10T20:29:23.281Z,11.30
2019-04-10T20:31:55.364Z,11.20
2019-04-10T20:34:24.272Z,11.20
2019-04-10T20:36:53.324Z,11.20
2019-04-10T20:39:23.257Z,11.20
2019-04-10T20:41:55.071Z,11.20
2019-04-10T20:44:22.810Z,11.10
2019-04-10T20:46:52.679Z,11.10
2019-04-10T20:49:22.486Z,11.10
2019-04-10T20:51:51.232Z,11.10
2019-04-10T20:54:20.353Z,11.00
2019-04-10T20:56:49.161Z,10.90
2019-04-10T20:59:17.648Z,10.80
2019-04-10T21:01:47.002Z,10.70
2019-04-10T21:04:15.660Z,10.60
2019-04-10T21:06:44.329Z,10.60
2019-04-10T21:09:13.031Z,10.60
2019-04-10T21:11:41.894Z,10.50
2019-04-10T21:14:12.116Z,10.50
2019-04-10T21:16:42.083Z,10.40
2019-04-10T21:19:11.118Z,10.40
2019-04-10T21:21:39.937Z,10.40
2019-04-10T21:24:09.273Z,10.30
2019-04-10T21:26:38.795Z,10.20
2019-04-10T21:29:09.600Z,10.20
2019-04-10T21:31:57.387Z,10.20
2019-04-10T21:34:30.485Z,10.20
2019-04-10T21:36:59.747Z,10.10
2019-04-10T21:39:29.646Z,10.00
2019-04-10T21:42:12.766Z,10.00
2019-04-10T21:44:31.501Z,9.90
2019-04-10T21:47:01.263Z,9.90
2019-04-10T21:49:30.332Z,9.90
2019-04-10T21:51:59.981Z,9.90
2019-04-10T21:54:29.707Z,9.80
2019-04-10T21:56:59.687Z,9.70
2019-04-10T21:59:29.005Z,9.70
2019-04-10T22:01:57.911Z,9.60
2019-04-10T22:04:27.379Z,9.60
2019-04-10T22:07:01.441Z,9.60
2019-04-10T22:09:31.861Z,9.50
2019-04-10T22:12:02.279Z,9.50
2019-04-10T22:14:31.018Z,9.40
2019-04-10T22:17:00.338Z,9.30
2019-04-10T22:19:29.137Z,9.30
2019-04-10T22:21:57.949Z,9.20
2019-04-10T22:24:26.699Z,9.20
2019-04-10T22:26:55.401Z,9.10
2019-04-10T22:29:24.208Z,9.10
2019-04-10T22:31:53.447Z,9.00
2019-04-10T22:34:22.418Z,9.00
2019-04-10T22:36:51.351Z,8.90
2019-04-10T22:39:21.828Z,8.90
2019-04-10T22:41:51.043Z,8.90
2019-04-10T22:44:19.760Z,8.80
2019-04-10T22:46:48.553Z,8.80
2019-04-10T22:49:18.065Z,8.70
2019-04-10T22:51:47.088Z,8.70
2019-04-10T22:54:15.883Z,8.60
2019-04-10T22:56:45.436Z,8.60
2019-04-10T22:59:15.597Z,8.60
2019-04-10T23:01:45.333Z,8.60
2019-04-10T23:04:14.353Z,8.60
2019-04-10T23:06:43.143Z,8.60
2019-04-10T23:09:12.375Z,8.50
2019-04-10T23:11:43.525Z,8.50
2019-04-10T23:14:12.321Z,8.50
2019-04-10T23:16:41.047Z,8.40
2019-04-10T23:19:09.934Z,8.40
2019-04-10T23:21:38.762Z,8.40
2019-04-10T23:24:07.615Z,8.40
2019-04-10T23:26:37.440Z,8.40
2019-04-10T23:29:06.287Z,8.40
2019-04-10T23:31:35.036Z,8.30
2019-04-10T23:34:04.177Z,8.30
2019-04-10T23:36:33.975Z,8.30
2019-04-10T23:39:03.837Z,8.30
2019-04-10T23:41:33.695Z,8.30
2019-04-10T23:44:02.327Z,8.20
2019-04-10T23:46:31.008Z,8.20
2019-04-10T23:48:59.519Z,8.20
2019-04-10T23:51:29.297Z,8.20
2019-04-10T23:53:57.868Z,8.20
2019-04-10T23:56:27.341Z,8.10
2019-04-10T23:58:56.206Z,8.10
